Rolla, Kansas
Current Conditions -  °F | °C
As of 6:53 PM on Tuesday 21 Oct 2014 (Local Time) from KGUY Reporting Station
Clear Clear  
Wind Chill: 23°   Ceiling: Unl
Heat Index: 23°   Visibility: 10mi
Dew Point:   Wind: 10mph
Humidity: 39%   Direction: 180°S
Pressure: 29.99"   Gusts: NA
Location:  37.12°N, 101.63°W
Report Text: KGUY 212353Z AUTO 18009KT 10SM CLR 23/08 A2999 RMK AO2 SLP127 T02280083 10272 20228 55003
Loading
Personal Weather Stations






























Interactive Weather Map
Tropical Storm Tracking
New forecast layout! Learn more

10-Day Weather Forecast

Advertisements
Track Severe Weather on mobile